Time;durP1;ratioP1;P1;durP2;ratioP2;P2;SDS_P1;SDS_P2;PMS_P1;PMS_P2;Temp;Humidity;BMP_temperature;BMP_pressure;BME280_temperature;BME280_humidity;BME280_pressure;Samples;Min_cycle;Max_cycle;Signal;HPM_P1;HPM_P2
2022/12/16 00:01:58;;;;;;;13.03;7.93;;;;;;;12.62;60.01;100777.47;4990117;28;20540;-68
2022/12/16 00:04:23;;;;;;;11.33;7.60;;;;;;;12.61;59.82;100773.13;4989351;28;20503;-68
2022/12/16 00:06:49;;;;;;;12.57;7.90;;;;;;;12.60;59.92;100779.59;4979392;28;20041;-68
2022/12/16 00:09:14;;;;;;;11.50;7.87;;;;;;;12.61;59.93;100778.56;4989807;28;20038;-68
2022/12/16 00:11:39;;;;;;;13.37;8.30;;;;;;;12.59;59.98;100783.38;4989745;28;20040;-68
2022/12/16 00:14:05;;;;;;;11.57;7.97;;;;;;;12.60;59.91;100785.88;4989748;28;20049;-68
2022/12/16 00:16:30;;;;;;;12.23;7.97;;;;;;;12.57;59.82;100789.03;4989830;28;20041;-69
2022/12/16 00:18:55;;;;;;;12.70;8.50;;;;;;;12.60;59.91;100794.03;4974450;28;20037;-68
2022/12/16 00:21:22;;;;;;;11.13;7.53;;;;;;;12.61;59.94;100795.69;4989603;28;20038;-68
2022/12/16 00:23:47;;;;;;;12.50;7.73;;;;;;;12.62;59.97;100788.34;4989732;28;20044;-69
2022/12/16 00:26:13;;;;;;;12.03;8.00;;;;;;;12.61;60.04;100784.81;4987509;28;20033;-68
2022/12/16 00:28:39;;;;;;;11.47;7.80;;;;;;;12.61;60.04;100775.84;4990144;28;20120;-68
2022/12/16 00:31:05;;;;;;;12.93;8.00;;;;;;;12.60;59.98;100775.00;4974804;28;20035;-68
2022/12/16 00:33:31;;;;;;;11.80;7.97;;;;;;;12.61;59.90;100784.81;4988834;28;20034;-68
2022/12/16 00:35:57;;;;;;;11.63;7.97;;;;;;;12.61;59.99;100773.94;4989514;28;20060;-68
2022/12/16 00:38:25;;;;;;;11.23;8.00;;;;;;;12.59;59.95;100776.06;4989965;28;20092;-68
2022/12/16 00:40:50;;;;;;;12.13;8.03;;;;;;;12.63;59.92;100781.88;4988750;28;20156;-68
2022/12/16 00:43:15;;;;;;;11.33;7.97;;;;;;;12.63;60.11;100782.72;4988846;28;20049;-68
2022/12/16 00:45:41;;;;;;;11.40;7.83;;;;;;;12.60;59.94;100769.56;4989241;28;20042;-68
2022/12/16 00:48:07;;;;;;;10.30;7.40;;;;;;;12.62;60.15;100770.19;4988087;28;21735;-68
2022/12/16 00:50:33;;;;;;;9.97;7.30;;;;;;;12.61;59.81;100779.38;4988641;28;20251;-69
2022/12/16 00:52:58;;;;;;;12.73;7.70;;;;;;;12.61;60.09;100773.94;4988561;28;20196;-69
2022/12/16 00:55:24;;;;;;;11.93;7.87;;;;;;;12.60;60.25;100777.72;4988487;28;20136;-68
2022/12/16 00:57:49;;;;;;;12.10;7.77;;;;;;;12.61;60.18;100778.56;4988211;28;20045;-68
2022/12/16 01:00:16;;;;;;;11.90;8.23;;;;;;;12.61;60.21;100784.00;4988053;28;20479;-68
2022/12/16 01:02:42;;;;;;;11.33;8.00;;;;;;;12.61;60.24;100784.00;4971481;28;20504;-68
2022/12/16 01:05:10;;;;;;;11.73;7.70;;;;;;;12.60;60.05;100798.63;4987916;28;20049;-68
2022/12/16 01:07:35;;;;;;;10.50;7.50;;;;;;;12.59;60.05;100792.38;4988741;28;20034;-69
2022/12/16 01:10:01;;;;;;;12.63;7.97;;;;;;;12.62;60.21;100791.06;4988160;28;20041;-68
2022/12/16 01:12:27;;;;;;;11.47;7.87;;;;;;;12.63;60.17;100793.59;4988068;28;20040;-68
2022/12/16 01:14:52;;;;;;;10.50;7.87;;;;;;;12.62;60.23;100794.63;4988017;28;20046;-68
2022/12/16 01:17:17;;;;;;;12.00;8.20;;;;;;;12.63;60.27;100799.03;4989380;28;20039;-68
2022/12/16 01:19:43;;;;;;;11.00;7.37;;;;;;;12.62;60.27;100797.34;4987882;28;20428;-68
2022/12/16 01:22:08;;;;;;;10.57;7.57;;;;;;;12.63;60.23;100806.31;4988328;28;20139;-68
2022/12/16 01:24:33;;;;;;;11.10;7.50;;;;;;;12.61;60.29;100812.00;4987848;28;20061;-68
2022/12/16 01:26:59;;;;;;;13.53;8.23;;;;;;;12.63;60.33;100806.31;4988416;28;20041;-68
2022/12/16 01:29:25;;;;;;;11.87;7.57;;;;;;;12.62;60.15;100816.38;4988134;28;20045;-68
2022/12/16 01:31:50;;;;;;;12.17;7.67;;;;;;;12.61;60.63;100809.28;4988138;28;20050;-68
2022/12/16 01:34:16;;;;;;;12.30;7.47;;;;;;;12.63;60.37;100818.06;4987549;28;20421;-68
2022/12/16 01:36:41;;;;;;;11.50;8.00;;;;;;;12.62;60.22;100816.38;4987848;28;20121;-68
2022/12/16 01:39:09;;;;;;;10.07;7.20;;;;;;;12.61;60.29;100828.31;4987691;28;20026;-68
2022/12/16 01:41:35;;;;;;;12.43;7.97;;;;;;;12.61;60.32;100828.31;4987989;28;20084;-68
2022/12/16 01:44:20;;;;;;;10.40;7.40;;;;;;;12.65;60.56;100828.69;4986708;28;20030;-68
2022/12/16 01:46:49;;;;;;;;;;;;;;;12.71;60.88;100833.22;4988357;28;20037;-68
2022/12/16 01:49:24;;;;;;;11.23;7.93;;;;;;;12.64;60.47;100843.34;4987228;28;20397;-68
2022/12/16 01:51:51;;;;;;;10.00;7.47;;;;;;;12.62;60.54;100843.56;4987403;28;20114;-68
2022/12/16 01:54:30;;;;;;;10.10;7.30;;;;;;;12.63;60.65;100831.63;4986540;28;20057;-69
2022/12/16 01:57:01;;;;;;;10.97;7.53;;;;;;;12.65;60.27;100829.50;4987548;28;20026;-68
2022/12/16 01:59:29;;;;;;;10.80;7.97;;;;;;;12.64;60.47;100833.28;4987143;28;20030;-68
2022/12/16 02:01:55;;;;;;;12.77;7.90;;;;;;;12.64;60.62;100846.06;4987441;28;20516;-68
2022/12/16 02:04:20;;;;;;;11.23;7.33;;;;;;;12.66;60.69;100841.19;4987434;28;20042;-68
2022/12/16 02:06:46;;;;;;;13.03;7.80;;;;;;;12.62;60.46;100849.00;4988502;28;20050;-68
2022/12/16 02:09:14;;;;;;;12.10;7.67;;;;;;;12.64;60.45;100852.31;4987326;28;20409;-68
2022/12/16 02:12:01;;;;;;;13.70;8.13;;;;;;;12.66;60.81;100854.78;4986943;28;20029;-68
2022/12/16 02:14:39;;;;;;;12.70;7.90;;;;;;;12.64;60.56;100860.47;4987369;28;20034;-68
2022/12/16 02:17:17;;;;;;;14.20;8.17;;;;;;;12.64;60.79;100857.75;4987313;28;20100;-68
2022/12/16 02:20:20;;;;;;;13.63;8.30;;;;;;;12.65;60.89;100856.69;4986522;28;20659;-68
2022/12/16 02:22:58;;;;;;;14.87;8.53;;;;;;;12.67;60.77;100867.34;4987189;28;21415;-68
2022/12/16 02:25:42;;;;;;;14.30;8.40;;;;;;;12.65;60.93;100862.13;4986977;28;20473;-68
2022/12/16 02:28:14;;;;;;;14.73;8.50;;;;;;;12.64;60.98;100859.66;4986946;28;20034;-68
2022/12/16 02:31:05;;;;;;;13.37;7.70;;;;;;;12.66;61.14;100865.66;4986221;28;20052;-68
2022/12/16 02:33:47;;;;;;;14.07;7.93;;;;;;;12.66;61.20;100868.38;4986737;28;21420;-68
2022/12/16 02:36:25;;;;;;;14.37;8.20;;;;;;;12.64;60.99;100860.47;4987064;28;20382;-68
2022/12/16 02:38:58;;;;;;;14.60;8.80;;;;;;;12.63;61.01;100860.69;4987513;28;20141;-68
2022/12/16 02:41:56;;;;;;;12.15;7.80;;;;;;;12.64;61.08;100871.34;4987787;28;20034;-69
2022/12/16 02:44:38;;;;;;;13.77;8.37;;;;;;;12.62;61.10;100868.03;4986579;28;20056;-68
2022/12/16 02:47:04;;;;;;;13.57;7.93;;;;;;;12.64;60.90;100865.91;4987234;28;20037;-68
2022/12/16 02:49:29;;;;;;;11.90;7.50;;;;;;;12.64;61.05;100874.06;4989438;28;20065;-68
2022/12/16 02:51:57;;;;;;;13.07;7.80;;;;;;;12.63;61.02;100886.00;4991545;28;20034;-68
2022/12/16 02:54:23;;;;;;;12.93;7.87;;;;;;;12.63;61.00;100875.13;4990443;28;21537;-68
2022/12/16 02:57:16;;;;;;;13.10;7.57;;;;;;;12.65;61.03;100878.44;4991558;28;20054;-68
2022/12/16 03:00:15;;;;;;;12.17;8.00;;;;;;;12.64;60.99;100881.38;4990609;28;20048;-68
2022/12/16 03:02:51;;;;;;;13.17;8.37;;;;;;;12.65;60.92;100883.88;4989268;28;20038;-68
2022/12/16 03:05:34;;;;;;;14.10;8.23;;;;;;;12.66;61.19;100876.53;4991091;28;20108;-68
2022/12/16 03:08:04;;;;;;;13.53;8.10;;;;;;;12.65;60.96;100880.34;4990882;28;20033;-68
2022/12/16 03:10:36;;;;;;;13.70;7.93;;;;;;;12.65;61.11;100878.44;4990434;28;20034;-68
2022/12/16 03:13:04;;;;;;;13.90;8.20;;;;;;;12.64;61.12;100881.38;4991033;28;20041;-68
2022/12/16 03:15:33;;;;;;;13.53;8.17;;;;;;;12.63;61.12;100883.28;4989665;28;20038;-68
2022/12/16 03:18:01;;;;;;;12.17;7.73;;;;;;;12.62;60.98;100878.91;4990668;28;20030;-68
2022/12/16 03:20:30;;;;;;;13.57;7.87;;;;;;;12.65;61.21;100880.34;4990564;28;20041;-68
2022/12/16 03:23:00;;;;;;;15.03;8.37;;;;;;;12.62;61.23;100887.06;4990392;28;20041;-68
2022/12/16 03:25:27;;;;;;;13.57;8.10;;;;;;;12.65;61.12;100886.59;4990018;28;20045;-68
2022/12/16 03:28:06;;;;;;;13.57;8.37;;;;;;;12.65;61.27;100880.34;4990323;28;20062;-68
2022/12/16 03:30:36;;;;;;;12.83;8.07;;;;;;;12.62;61.26;100888.91;4989500;28;20118;-69
2022/12/16 03:33:10;;;;;;;15.13;8.23;;;;;;;12.66;61.60;100893.69;4990233;28;20033;-69
2022/12/16 03:35:44;;;;;;;13.73;8.55;;;;;;;12.65;61.85;100894.75;4990603;28;20374;-69
2022/12/16 03:38:12;;;;;;;13.25;8.52;;;;;;;12.66;61.77;100893.69;4989974;28;20063;-69
2022/12/16 03:40:40;;;;;;;12.10;7.80;;;;;;;12.65;61.72;100894.75;4989967;28;20034;-69
2022/12/16 03:43:09;;;;;;;12.43;7.43;;;;;;;12.66;61.83;100901.84;4990917;28;20033;-69
2022/12/16 03:45:38;;;;;;;12.17;7.60;;;;;;;12.66;61.73;100907.28;4990610;28;20037;-69
2022/12/16 03:48:07;;;;;;;11.20;7.70;;;;;;;12.66;61.88;100907.28;4989628;28;21509;-69
2022/12/16 03:50:34;;;;;;;11.87;7.87;;;;;;;12.65;61.70;100919.22;4989981;28;20049;-69
2022/12/16 03:53:00;;;;;;;12.73;8.13;;;;;;;12.66;61.69;100914.59;4990100;28;20487;-69
2022/12/16 03:55:26;;;;;;;12.77;7.63;;;;;;;12.67;61.34;100916.28;4989410;28;20096;-69
2022/12/16 03:57:51;;;;;;;11.07;7.67;;;;;;;12.66;61.53;100918.16;4989778;28;20506;-69
2022/12/16 04:00:17;;;;;;;12.40;7.40;;;;;;;12.68;61.71;100914.41;4989248;28;20121;-69
2022/12/16 04:02:43;;;;;;;12.47;7.97;;;;;;;12.66;61.74;100920.88;4989843;28;20600;-69
2022/12/16 04:05:08;;;;;;;10.73;7.30;;;;;;;12.68;61.52;100923.38;4989283;28;20112;-69
2022/12/16 04:07:34;;;;;;;12.87;8.33;;;;;;;12.70;61.37;100934.88;4990051;28;20038;-69
2022/12/16 04:09:59;;;;;;;12.23;7.40;;;;;;;12.70;61.74;100942.19;4988472;28;20034;-69
2022/12/16 04:26:11;;;;;;;11.07;7.80;;;;;;;12.68;61.52;100945.13;4989385;28;20049;-69
2022/12/16 04:28:37;;;;;;;11.93;7.97;;;;;;;12.67;61.46;100951.59;4988824;28;20034;-69
2022/12/16 04:31:02;;;;;;;11.30;7.73;;;;;;;12.67;61.31;100957.03;4987009;28;20050;-69
